Time;durP1;ratioP1;P1;durP2;ratioP2;P2;SDS_P1;SDS_P2;PMS_P1;PMS_P2;Temp;Humidity;BMP_temperature;BMP_pressure;BME280_temperature;BME280_humidity;BME280_pressure;Samples;Min_cycle;Max_cycle;Signal;HPM_P1;HPM_P2
2022/05/01 00:02:15;;;;;;;20.98;16.05;;;10.50;74.10;;;;;;5037014;28;20268;-75
2022/05/01 00:04:42;;;;;;;21.02;17.27;;;10.40;74.10;;;;;;5037089;28;20243;-75
2022/05/01 00:07:12;;;;;;;21.60;17.10;;;10.30;75.20;;;;;;5037180;28;20190;-74
2022/05/01 00:09:39;;;;;;;19.30;16.15;;;10.30;76.00;;;;;;5037209;28;20183;-75
2022/05/01 00:12:09;;;;;;;20.92;16.40;;;10.40;76.60;;;;;;5036875;28;20222;-75
2022/05/01 00:14:36;;;;;;;21.92;15.60;;;10.40;76.00;;;;;;5036671;28;20270;-78
2022/05/01 00:17:03;;;;;;;20.80;15.80;;;10.40;75.80;;;;;;5029184;28;20202;-76
2022/05/01 00:19:30;;;;;;;23.50;16.42;;;10.40;75.20;;;;;;5025737;28;20214;-77
2022/05/01 00:21:59;;;;;;;24.40;16.45;;;10.30;76.20;;;;;;5023124;28;20208;-77
2022/05/01 00:24:26;;;;;;;22.95;16.42;;;10.30;76.60;;;;;;5018388;28;20235;-76
2022/05/01 00:26:53;;;;;;;22.08;17.63;;;10.40;76.60;;;;;;5014029;28;20212;-77
2022/05/01 00:29:21;;;;;;;21.08;16.15;;;10.40;76.60;;;;;;5013624;28;20219;-78
2022/05/01 00:31:48;;;;;;;23.30;18.08;;;10.40;75.90;;;;;;5014332;28;20236;-76
2022/05/01 00:36:59;;;;;;;18.33;15.55;;;10.40;74.60;;;;;;5013760;28;20203;-77
2022/05/01 00:39:26;;;;;;;22.05;17.90;;;10.40;75.10;;;;;;5012771;28;20235;-76
2022/05/01 00:41:53;;;;;;;21.45;17.45;;;10.40;75.20;;;;;;5014172;28;20199;-76
2022/05/01 00:44:22;;;;;;;22.73;16.80;;;10.40;75.30;;;;;;5013173;28;20239;-77
2022/05/01 00:46:51;;;;;;;22.30;16.73;;;10.40;74.20;;;;;;5013801;28;20204;-76
2022/05/01 00:49:20;;;;;;;20.15;17.58;;;10.40;73.10;;;;;;5013076;28;20203;-76
2022/05/01 00:51:51;;;;;;;22.27;17.67;;;10.40;73.20;;;;;;4993796;28;20273;-77
2022/05/01 00:54:22;;;;;;;24.50;17.58;;;10.30;73.30;;;;;;5012259;28;20255;-77
2022/05/01 00:56:51;;;;;;;22.45;16.85;;;10.30;73.60;;;;;;5016348;28;20223;-75
2022/05/01 00:59:18;;;;;;;22.35;16.75;;;10.30;74.20;;;;;;5016766;28;20215;-77
2022/05/01 01:01:49;;;;;;;20.88;17.35;;;10.30;72.50;;;;;;5017107;28;20222;-78
2022/05/01 01:04:16;;;;;;;22.35;16.40;;;10.30;73.10;;;;;;5013337;28;20263;-77
2022/05/01 01:06:43;;;;;;;20.77;16.63;;;10.30;73.90;;;;;;5013272;28;20298;-77
2022/05/01 01:09:12;;;;;;;18.60;16.38;;;10.30;74.40;;;;;;5016500;28;20206;-76
2022/05/01 01:11:40;;;;;;;18.55;16.25;;;10.30;74.10;;;;;;5017087;28;20239;-77
2022/05/01 01:14:07;;;;;;;18.08;15.18;;;10.30;74.10;;;;;;5016512;28;20223;-77
2022/05/01 01:16:34;;;;;;;25.27;16.83;;;10.30;74.00;;;;;;5016909;28;20200;-77
2022/05/01 01:19:04;;;;;;;21.90;17.40;;;10.30;74.20;;;;;;5016542;28;20234;-77
2022/05/01 01:21:32;;;;;;;21.90;17.15;;;10.30;75.00;;;;;;5017393;28;20763;-76
2022/05/01 01:24:00;;;;;;;20.67;16.25;;;10.20;76.40;;;;;;5017150;28;20707;-77
2022/05/01 01:26:29;;;;;;;21.50;16.70;;;10.10;76.40;;;;;;5018049;28;20660;-76
2022/05/01 01:28:58;;;;;;;20.98;17.10;;;10.10;76.30;;;;;;5017007;28;20694;-76
2022/05/01 01:31:42;;;;;;;22.00;16.90;;;10.10;76.30;;;;;;5017112;28;20207;-76
2022/05/01 01:34:14;;;;;;;20.02;16.10;;;10.20;74.70;;;;;;5018359;28;20303;-77
2022/05/01 01:36:44;;;;;;;20.92;15.25;;;10.20;73.10;;;;;;5017761;28;20200;-77
2022/05/01 01:39:12;;;;;;;21.80;18.27;;;10.20;73.00;;;;;;5018822;28;20238;-77
2022/05/01 01:41:42;;;;;;;21.35;15.57;;;10.10;73.90;;;;;;5019476;28;20204;-77
2022/05/01 01:44:09;;;;;;;18.00;15.88;;;10.10;73.80;;;;;;5026557;28;20235;-76
2022/05/01 01:46:39;;;;;;;21.55;15.70;;;10.10;73.50;;;;;;5031730;28;20199;-76
2022/05/01 01:49:10;;;;;;;20.90;16.38;;;10.10;74.10;;;;;;5028229;28;20208;-77
2022/05/01 01:51:37;;;;;;;19.42;17.02;;;10.00;74.40;;;;;;5018120;28;20202;-76
2022/05/01 01:54:06;;;;;;;22.10;17.63;;;9.90;76.30;;;;;;5016824;28;20676;-78
2022/05/01 01:56:33;;;;;;;25.85;17.83;;;9.90;77.20;;;;;;5016269;28;20258;-76
2022/05/01 01:59:00;;;;;;;22.75;17.17;;;9.80;78.10;;;;;;5017558;28;20246;-77
2022/05/01 02:01:27;;;;;;;21.80;17.40;;;9.80;78.20;;;;;;5017554;28;20299;-77
2022/05/01 02:03:53;;;;;;;23.55;18.02;;;9.80;78.40;;;;;;5019202;28;20235;-77
2022/05/01 02:06:20;;;;;;;26.85;18.75;;;9.80;78.30;;;;;;5020892;28;20211;-77
2022/05/01 02:08:48;;;;;;;21.33;17.45;;;9.80;78.30;;;;;;5022977;28;20211;-77
2022/05/01 02:11:17;;;;;;;22.95;17.65;;;9.80;79.30;;;;;;5016302;28;20262;-77
2022/05/01 02:13:44;;;;;;;24.10;18.33;;;9.90;79.50;;;;;;5015472;28;20595;-77
2022/05/01 02:16:10;;;;;;;23.70;19.50;;;9.90;78.90;;;;;;5016864;28;20208;-77
2022/05/01 02:18:37;;;;;;;22.42;18.27;;;9.90;78.50;;;;;;5018762;28;20208;-77
2022/05/01 02:23:49;;;;;;;26.95;19.00;;;10.00;77.40;;;;;;5025004;28;20234;-78
2022/05/01 02:26:17;;;;;;;21.75;18.23;;;10.00;78.30;;;;;;5024835;28;20267;-77
2022/05/01 02:28:44;;;;;;;24.20;17.83;;;9.90;80.20;;;;;;5017865;28;20211;-77
2022/05/01 02:31:11;;;;;;;20.77;17.15;;;9.90;81.10;;;;;;5017103;28;20759;-77
2022/05/01 02:33:38;;;;;;;24.13;17.85;;;9.90;81.40;;;;;;5017236;28;20628;-76
2022/05/01 02:36:07;;;;;;;24.60;18.55;;;10.00;80.50;;;;;;5025850;28;20234;-77
2022/05/01 02:38:34;;;;;;;22.65;18.33;;;10.00;79.80;;;;;;5033506;28;20226;-76
2022/05/01 02:41:02;;;;;;;23.42;16.92;;;10.00;77.80;;;;;;5034870;28;20204;-77
2022/05/01 02:43:30;;;;;;;21.35;17.67;;;10.10;76.60;;;;;;5028322;28;20231;-76
2022/05/01 02:45:57;;;;;;;20.00;16.33;;;10.10;76.50;;;;;;5029689;28;20215;-77
2022/05/01 02:48:24;;;;;;;20.27;16.80;;;10.10;76.40;;;;;;5028497;28;20200;-77
2022/05/01 02:50:51;;;;;;;21.85;17.20;;;10.10;75.70;;;;;;5019735;28;20291;-76
2022/05/01 02:53:17;;;;;;;19.73;17.00;;;10.20;76.40;;;;;;5022549;28;20232;-77
2022/05/01 02:55:44;;;;;;;19.85;16.67;;;10.20;76.70;;;;;;5029063;28;20208;-76
2022/05/01 02:58:11;;;;;;;19.35;16.25;;;10.20;78.30;;;;;;5020092;28;20220;-78
2022/05/01 03:00:40;;;;;;;21.77;18.15;;;10.10;79.40;;;;;;5019196;28;20227;-76
2022/05/01 03:03:07;;;;;;;25.50;18.45;;;10.20;80.70;;;;;;5017020;28;20286;-77
2022/05/01 03:05:34;;;;;;;19.70;17.42;;;10.30;80.80;;;;;;5015818;28;20223;-76
2022/05/01 03:08:00;;;;;;;22.70;18.35;;;10.30;80.80;;;;;;5015147;28;20582;-77
2022/05/01 03:10:27;;;;;;;24.83;17.63;;;10.30;80.80;;;;;;5015676;28;20564;-76
2022/05/01 03:12:54;;;;;;;20.10;16.73;;;10.20;80.70;;;;;;5016735;28;20208;-77
2022/05/01 03:15:24;;;;;;;26.90;17.83;;;10.20;80.70;;;;;;5016240;28;20203;-77
2022/05/01 03:23:23;;;;;;;23.58;18.38;;;10.20;81.20;;;;;;5035346;28;20234;-77
2022/05/01 03:25:50;;;;;;;20.80;17.95;;;10.20;80.70;;;;;;5036141;28;20262;-76
2022/05/01 03:28:16;;;;;;;22.08;17.95;;;10.20;80.50;;;;;;5036014;28;20203;-77
2022/05/01 03:30:43;;;;;;;25.42;19.55;;;10.20;81.70;;;;;;5031067;28;20298;-76
2022/05/01 03:33:12;;;;;;;22.17;18.27;;;10.20;82.10;;;;;;5019125;28;20224;-77
2022/05/01 03:35:39;;;;;;;21.65;18.35;;;10.20;82.10;;;;;;5015819;28;20263;-76
2022/05/01 03:38:07;;;;;;;26.00;19.60;;;10.20;82.40;;;;;;5014921;28;20204;-75
2022/05/01 03:40:35;;;;;;;22.60;18.77;;;10.10;82.40;;;;;;5014738;28;20672;-77
2022/05/01 03:43:03;;;;;;;25.13;18.75;;;10.10;83.00;;;;;;5016027;28;20208;-76
2022/05/01 03:45:30;;;;;;;26.25;18.05;;;10.10;82.50;;;;;;5017062;28;20220;-77
2022/05/01 03:47:56;;;;;;;24.38;18.38;;;10.20;81.80;;;;;;5017176;28;20299;-75
2022/05/01 03:50:25;;;;;;;23.98;17.88;;;10.20;80.70;;;;;;5015732;28;20218;-77
2022/05/01 03:52:52;;;;;;;24.65;19.45;;;10.20;81.80;;;;;;5015560;28;20220;-76
2022/05/01 03:55:20;;;;;;;28.33;20.20;;;10.20;82.80;;;;;;5020555;28;20235;-74
2022/05/01 03:57:46;;;;;;;25.15;18.52;;;10.20;78.00;;;;;;5026601;28;20208;-76
2022/05/01 04:00:18;;;;;;;21.42;17.58;;;10.20;76.40;;;;;;5029361;28;20208;-75
2022/05/01 04:02:46;;;;;;;23.48;17.88;;;10.20;76.40;;;;;;5021254;28;20528;-76
2022/05/01 04:05:14;;;;;;;23.00;18.60;;;10.20;75.40;;;;;;5016588;28;20262;-76
2022/05/01 04:07:43;;;;;;;22.98;17.90;;;10.20;75.10;;;;;;5016570;28;20231;-76
2022/05/01 04:10:11;;;;;;;24.52;18.50;;;10.10;74.10;;;;;;5017250;28;20239;-76
2022/05/01 04:12:39;;;;;;;24.60;18.40;;;10.00;73.70;;;;;;5024531;28;20206;-77
2022/05/01 04:15:08;;;;;;;19.55;16.75;;;9.80;77.10;;;;;;5037434;28;20246;-78
2022/05/01 04:17:38;;;;;;;25.60;17.70;;;9.90;77.20;;;;;;5027775;28;20562;-76
2022/05/01 04:20:08;;;;;;;21.80;18.30;;;10.00;76.90;;;;;;5016714;28;20207;-77
2022/05/01 04:22:38;;;;;;;23.65;18.98;;;10.00;80.50;;;;;;5017936;28;20204;-76
2022/05/01 04:25:08;;;;;;;26.70;18.55;;;10.00;83.60;;;;;;5016429;28;20605;-76
2022/05/01 04:27:35;;;;;;;23.45;18.48;;;10.10;84.80;;;;;;5014071;28;20283;-76
2022/05/01 04:30:02;;;;;;;26.95;19.02;;;10.10;85.40;;;;;;5015378;28;20236;-75
2022/05/01 04:32:29;;;;;;;26.67;20.17;;;10.10;86.90;;;;;;5014731;28;20736;-75
2022/05/01 04:34:56;;;;;;;21.70;19.27;;;10.20;88.20;;;;;;5015254;28;20259;-76
2022/05/01 04:37:23;;;;;;;25.08;19.65;;;10.20;89.10;;;;;;5012778;28;20214;-77
2022/05/01 04:39:50;;;;;;;26.88;20.15;;;10.30;89.30;;;;;;5013294;28;20214;-77
2022/05/01 04:42:18;;;;;;;25.75;20.13;;;10.30;89.00;;;;;;5014375;28;20200;-77
2022/05/01 04:44:46;;;;;;;24.02;20.05;;;10.30;89.10;;;;;;5017576;28;20267;-76
2022/05/01 04:47:13;;;;;;;21.80;18.23;;;10.30;90.00;;;;;;5016871;28;20212;-76
2022/05/01 04:49:40;;;;;;;20.75;18.50;;;10.40;90.10;;;;;;5016113;28;20215;-77
2022/05/01 04:52:07;;;;;;;22.65;19.15;;;10.40;89.80;;;;;;5016330;28;20306;-76
2022/05/01 04:54:34;;;;;;;25.42;19.30;;;10.40;89.20;;;;;;5016537;28;20302;-76
2022/05/01 04:57:09;;;;;;;23.23;18.73;;;10.40;89.60;;;;;;5016666;28;20231;-76
2022/05/01 04:59:38;;;;;;;22.88;18.13;;;10.30;85.30;;;;;;5016603;28;20264;-75
2022/05/01 05:02:05;;;;;;;22.65;18.30;;;10.20;80.70;;;;;;5016963;28;20273;-76
2022/05/01 05:04:32;;;;;;;21.55;17.13;;;10.20;78.70;;;;;;5016759;28;20230;-75
2022/05/01 05:06:59;;;;;;;24.77;18.27;;;10.30;76.70;;;;;;5017032;28;20298;-76
2022/05/01 05:12:10;;;;;;;22.80;17.48;;;10.40;72.80;;;;;;5017155;28;20191;-76
2022/05/01 05:14:39;;;;;;;22.20;16.88;;;10.40;71.50;;;;;;5016335;28;20314;-76
2022/05/01 05:17:07;;;;;;;22.05;18.30;;;10.30;69.70;;;;;;5017918;28;20235;-76
2022/05/01 05:19:35;;;;;;;23.33;18.25;;;10.40;69.80;;;;;;5020718;28;20258;-76
2022/05/01 05:22:02;;;;;;;23.35;17.83;;;10.60;68.70;;;;;;5027988;28;20231;-76
2022/05/01 05:24:30;;;;;;;23.20;15.98;;;10.70;68.20;;;;;;5034589;28;20231;-76
2022/05/01 05:26:57;;;;;;;19.38;15.38;;;10.70;67.30;;;;;;5037938;28;20188;-76
2022/05/01 05:29:24;;;;;;;18.65;15.60;;;10.80;66.50;;;;;;5037829;28;20239;-76
2022/05/01 05:31:52;;;;;;;21.20;15.77;;;10.90;66.20;;;;;;5035079;28;20275;-76
2022/05/01 05:34:19;;;;;;;18.08;15.68;;;11.00;65.20;;;;;;5036795;28;20216;-76
2022/05/01 05:36:46;;;;;;;18.02;15.52;;;10.90;65.00;;;;;;5034843;28;20223;-76
2022/05/01 05:39:13;;;;;;;19.00;15.32;;;11.00;64.50;;;;;;5023769;28;20656;-77
2022/05/01 05:41:40;;;;;;;18.02;15.95;;;11.00;64.90;;;;;;5015441;28;20246;-77
2022/05/01 05:44:07;;;;;;;18.23;14.57;;;11.00;65.20;;;;;;5015219;28;20228;-77
2022/05/01 05:46:34;;;;;;;18.50;14.88;;;11.10;65.30;;;;;;5015223;28;20319;-77
2022/05/01 05:49:03;;;;;;;21.20;16.10;;;11.10;64.90;;;;;;5015760;28;20696;-77
2022/05/01 05:51:30;;;;;;;18.33;15.38;;;11.20;64.70;;;;;;5015617;28;20298;-77
2022/05/01 05:53:57;;;;;;;22.15;17.33;;;11.40;64.00;;;;;;5015397;28;20222;-77
2022/05/01 05:56:24;;;;;;;22.33;15.23;;;11.60;63.30;;;;;;5015703;28;20227;-76
2022/05/01 05:58:52;;;;;;;16.75;14.15;;;11.80;61.60;;;;;;5017099;28;20214;-76
2022/05/01 06:01:19;;;;;;;20.20;16.63;;;12.10;61.20;;;;;;5015110;28;20212;-76
2022/05/01 06:03:45;;;;;;;18.77;16.83;;;12.40;57.90;;;;;;5014684;28;20227;-77
2022/05/01 06:06:15;;;;;;;18.70;15.77;;;12.60;54.80;;;;;;5014839;28;20327;-76
2022/05/01 06:08:43;;;;;;;19.23;16.20;;;12.70;53.60;;;;;;5014919;28;20212;-77
2022/05/01 06:11:09;;;;;;;19.95;15.93;;;12.60;53.30;;;;;;5018781;28;20634;-76
2022/05/01 06:13:37;;;;;;;21.77;15.82;;;12.50;53.90;;;;;;5017967;28;20293;-77
2022/05/01 06:16:04;;;;;;;18.00;14.97;;;12.70;53.10;;;;;;5017440;28;20204;-78
2022/05/01 06:18:31;;;;;;;17.52;13.93;;;12.80;52.00;;;;;;5016819;28;20506;-76
2022/05/01 06:20:58;;;;;;;21.95;15.80;;;12.60;52.40;;;;;;5019067;28;20219;-78
2022/05/01 06:23:26;;;;;;;17.25;14.85;;;12.80;53.20;;;;;;5016946;28;20262;-77
2022/05/01 06:25:53;;;;;;;17.38;15.55;;;12.80;53.70;;;;;;5017424;28;20322;-76
2022/05/01 06:28:20;;;;;;;19.40;15.88;;;12.80;54.20;;;;;;5015301;28;20208;-78
2022/05/01 06:30:49;;;;;;;19.95;15.88;;;12.80;55.70;;;;;;5015047;28;20207;-78
2022/05/01 06:33:18;;;;;;;16.60;14.80;;;12.70;56.90;;;;;;5014616;28;20274;-77
2022/05/01 06:35:48;;;;;;;15.38;13.18;;;12.50;53.50;;;;;;5015448;28;20595;-76
2022/05/01 06:38:15;;;;;;;15.70;14.00;;;12.40;52.80;;;;;;5015046;28;20212;-76
2022/05/01 06:40:44;;;;;;;14.85;13.32;;;12.40;51.50;;;;;;5015368;28;20632;-76
2022/05/01 06:43:11;;;;;;;23.92;15.15;;;12.50;51.60;;;;;;5014872;28;20216;-76
2022/05/01 06:45:38;;;;;;;16.65;14.85;;;12.30;52.80;;;;;;5015268;28;20319;-76
2022/05/01 06:48:07;;;;;;;16.48;14.50;;;12.40;54.50;;;;;;5032680;28;20200;-76
2022/05/01 06:50:34;;;;;;;16.92;14.60;;;12.60;52.50;;;;;;5029893;28;20204;-77
2022/05/01 06:53:01;;;;;;;17.25;14.55;;;12.80;51.90;;;;;;5014685;28;20215;-76
2022/05/01 06:55:28;;;;;;;16.60;13.85;;;12.90;51.90;;;;;;5015058;28;20207;-77
2022/05/01 06:57:56;;;;;;;22.33;14.23;;;13.10;52.10;;;;;;5014691;28;20578;-77
2022/05/01 07:00:24;;;;;;;16.38;14.27;;;13.20;51.40;;;;;;5015100;28;20459;-77
2022/05/01 07:02:52;;;;;;;16.30;14.70;;;13.00;52.00;;;;;;5014122;28;20203;-77
2022/05/01 07:05:20;;;;;;;18.03;15.73;;;13.10;53.80;;;;;;5013767;28;20231;-77
2022/05/01 07:07:48;;;;;;;18.03;15.93;;;13.30;54.70;;;;;;5014812;28;20496;-77
2022/05/01 07:10:15;;;;;;;18.30;16.33;;;13.60;53.60;;;;;;5014751;28;20516;-77
2022/05/01 07:12:42;;;;;;;16.50;14.60;;;13.80;52.80;;;;;;5014413;28;20541;-77
2022/05/01 07:15:11;;;;;;;17.33;15.53;;;13.90;52.90;;;;;;5014715;28;20989;-77
2022/05/01 07:17:38;;;;;;;19.67;16.07;;;14.20;51.90;;;;;;5015017;28;20453;-76
2022/05/01 07:20:06;;;;;;;16.80;15.00;;;14.20;51.40;;;;;;5014209;28;20433;-77
2022/05/01 07:22:33;;;;;;;21.43;16.63;;;14.20;50.70;;;;;;5015347;28;20434;-76
2022/05/01 07:25:00;;;;;;;20.10;16.70;;;14.40;50.60;;;;;;5022639;28;20536;-77
2022/05/01 07:27:27;;;;;;;20.43;18.07;;;14.20;50.60;;;;;;5021449;28;20461;-76
2022/05/01 07:29:53;;;;;;;18.70;16.73;;;14.00;50.70;;;;;;5024515;28;20451;-76
2022/05/01 07:32:22;;;;;;;19.63;17.03;;;13.90;50.50;;;;;;5025426;28;20983;-77
2022/05/01 07:34:49;;;;;;;19.53;17.43;;;13.90;50.80;;;;;;5027755;28;20510;-77
2022/05/01 07:37:16;;;;;;;20.33;17.87;;;14.10;50.70;;;;;;5020546;28;20452;-77
2022/05/01 07:39:43;;;;;;;20.67;18.40;;;14.30;50.20;;;;;;5021305;28;20549;-77
2022/05/01 07:42:11;;;;;;;18.00;16.20;;;14.40;48.50;;;;;;5025411;28;20435;-77
2022/05/01 07:44:38;;;;;;;18.50;15.73;;;14.70;48.80;;;;;;5028016;28;20466;-77
2022/05/01 07:47:05;;;;;;;23.23;18.17;;;15.00;48.10;;;;;;5029187;28;20461;-77
2022/05/01 07:49:33;;;;;;;19.40;17.10;;;15.10;46.60;;;;;;5030198;28;20506;-77
2022/05/01 07:52:00;;;;;;;18.43;15.70;;;15.20;45.90;;;;;;5027927;28;20463;-77
2022/05/01 07:54:27;;;;;;;21.13;18.93;;;15.40;45.30;;;;;;5021563;28;20485;-77
2022/05/01 07:56:53;;;;;;;21.80;19.50;;;15.20;44.40;;;;;;5020167;28;20451;-76
2022/05/01 07:59:21;;;;;;;20.50;17.90;;;14.80;45.90;;;;;;5018738;28;20467;-75
2022/05/01 08:01:48;;;;;;;19.83;17.77;;;14.70;47.10;;;;;;5014298;28;20441;-78
2022/05/01 08:04:29;;;;;;;18.90;16.90;;;14.90;47.30;;;;;;5015233;28;20474;-77
2022/05/01 08:06:58;;;;;;;20.07;18.00;;;15.00;46.40;;;;;;5014093;28;20572;-77
2022/05/01 08:09:25;;;;;;;23.67;18.53;;;13.90;49.40;;;;;;5013929;28;20542;-77
2022/05/01 08:11:53;;;;;;;23.07;20.30;;;13.80;51.50;;;;;;5014842;28;20516;-77
2022/05/01 08:14:21;;;;;;;20.13;17.87;;;14.60;49.90;;;;;;5018321;28;20493;-77
2022/05/01 08:16:48;;;;;;;19.27;17.37;;;15.60;47.40;;;;;;5020171;28;20462;-77
2022/05/01 08:22:02;;;;;;;19.43;17.50;;;15.70;44.80;;;;;;5032987;28;20503;-77
2022/05/01 08:24:29;;;;;;;21.27;19.07;;;16.20;45.30;;;;;;5037415;28;20441;-77
2022/05/01 08:26:56;;;;;;;21.20;18.50;;;16.10;44.30;;;;;;5016664;28;20469;-77
2022/05/01 08:29:23;;;;;;;19.90;18.00;;;15.30;44.40;;;;;;5017087;28;20462;-78
2022/05/01 08:31:50;;;;;;;20.53;18.47;;;15.50;45.50;;;;;;5017030;28;20432;-77
2022/05/01 08:34:18;;;;;;;19.77;17.70;;;15.40;44.60;;;;;;5016070;28;20449;-76
2022/05/01 08:36:45;;;;;;;22.80;18.20;;;15.20;44.80;;;;;;5017685;28;20428;-76
2022/05/01 08:39:14;;;;;;;19.47;17.40;;;14.90;46.20;;;;;;5016813;28;20524;-76
2022/05/01 08:41:41;;;;;;;20.77;18.10;;;15.10;46.00;;;;;;5019031;28;20458;-77
2022/05/01 08:44:13;;;;;;;23.07;17.57;;;14.30;48.00;;;;;;5020591;28;20882;-77
2022/05/01 08:46:57;;;;;;;18.43;16.50;;;14.90;46.30;;;;;;5021836;28;20460;-77
2022/05/01 08:49:26;;;;;;;18.33;16.27;;;15.60;44.70;;;;;;5025584;28;20436;-77
2022/05/01 08:51:53;;;;;;;18.73;16.83;;;16.70;43.20;;;;;;5028152;28;20433;-77
2022/05/01 08:54:24;;;;;;;15.90;14.30;;;17.00;40.90;;;;;;5026347;28;20957;-77
2022/05/01 08:56:51;;;;;;;20.30;15.63;;;16.40;42.70;;;;;;5010681;28;20454;-76
2022/05/01 08:59:20;;;;;;;18.00;15.17;;;17.00;41.50;;;;;;5015255;28;20410;-76
2022/05/01 09:01:48;;;;;;;15.80;14.20;;;17.10;40.60;;;;;;5035267;28;20429;-76
2022/05/01 09:04:19;;;;;;;16.90;14.97;;;17.20;40.30;;;;;;5038146;28;20444;-75
2022/05/01 09:06:47;;;;;;;16.50;14.80;;;17.00;41.10;;;;;;5038676;28;20512;-76
2022/05/01 09:09:18;;;;;;;17.13;15.33;;;17.00;40.80;;;;;;5037027;28;20428;-75
2022/05/01 09:14:32;;;;;;;17.73;16.00;;;17.30;40.00;;;;;;5038995;28;20464;-75
2022/05/01 09:17:13;;;;;;;20.57;18.37;;;17.10;39.40;;;;;;5037423;28;20426;-75
2022/05/01 09:19:41;;;;;;;19.20;17.20;;;15.20;44.40;;;;;;5036707;28;20443;-76
2022/05/01 09:22:08;;;;;;;17.67;16.07;;;14.90;45.60;;;;;;5034341;28;20430;-76
2022/05/01 09:24:35;;;;;;;19.63;17.20;;;15.70;44.80;;;;;;5024816;28;20887;-76
2022/05/01 09:27:04;;;;;;;19.10;17.10;;;15.00;44.20;;;;;;5018743;28;20493;-76
2022/05/01 09:29:34;;;;;;;17.90;16.00;;;14.90;46.00;;;;;;5020452;28;20434;-76
2022/05/01 09:32:03;;;;;;;18.10;16.30;;;15.50;44.60;;;;;;5018185;28;20484;-76
2022/05/01 09:34:31;;;;;;;18.23;15.73;;;15.30;44.40;;;;;;5017271;28;20486;-77
2022/05/01 09:36:59;;;;;;;18.37;16.37;;;15.40;44.50;;;;;;5015832;28;20445;-76
2022/05/01 09:39:28;;;;;;;17.60;15.70;;;16.00;42.70;;;;;;5009287;28;20470;-73
2022/05/01 09:41:56;;;;;;;16.63;14.70;;;15.40;44.50;;;;;;5012354;28;20432;-73
2022/05/01 09:44:24;;;;;;;18.27;15.80;;;15.40;44.50;;;;;;5012328;28;20450;-75
2022/05/01 09:46:52;;;;;;;18.77;15.47;;;15.40;44.50;;;;;;5013951;28;20471;-75
2022/05/01 09:49:19;;;;;;;19.20;16.73;;;16.00;42.90;;;;;;5008337;28;20520;-75
2022/05/01 09:51:54;;;;;;;17.90;14.67;;;15.60;43.80;;;;;;5014610;28;20446;-75
2022/05/01 09:54:22;;;;;;;16.60;14.60;;;15.30;43.30;;;;;;5015772;28;20782;-74
2022/05/01 09:56:52;;;;;;;17.73;15.17;;;15.20;44.40;;;;;;5016004;28;20517;-75
2022/05/01 09:59:20;;;;;;;19.30;15.10;;;15.00;44.20;;;;;;5015920;28;20886;-74
2022/05/01 10:02:02;;;;;;;17.53;15.30;;;15.60;44.70;;;;;;5014905;28;20804;-74
2022/05/01 10:04:30;;;;;;;19.73;14.50;;;16.30;41.50;;;;;;5017473;28;20492;-74
2022/05/01 10:06:59;;;;;;;15.80;14.20;;;15.60;43.50;;;;;;5015858;28;21035;-74
2022/05/01 10:09:27;;;;;;;16.37;14.70;;;16.70;41.80;;;;;;5015487;28;20516;-73
2022/05/01 10:11:55;;;;;;;15.03;13.63;;;16.70;40.50;;;;;;5013374;28;20433;-73
2022/05/01 10:14:23;;;;;;;16.07;13.63;;;16.50;40.60;;;;;;5013872;28;20518;-74
2022/05/01 10:16:50;;;;;;;14.70;13.20;;;17.20;39.90;;;;;;5014397;28;20450;-74
2022/05/01 10:19:19;;;;;;;15.27;12.67;;;17.80;36.70;;;;;;5011663;28;20498;-73
2022/05/01 10:21:48;;;;;;;13.70;12.30;;;18.10;37.10;;;;;;5013202;28;20474;-75
2022/05/01 10:24:15;;;;;;;12.57;11.27;;;18.10;36.50;;;;;;5014370;28;20515;-74
2022/05/01 10:26:51;;;;;;;13.83;12.40;;;18.30;36.10;;;;;;5026366;28;20550;-73
2022/05/01 10:32:20;;;;;;;14.23;12.80;;;18.20;34.70;;;;;;5013078;28;20444;-73
2022/05/01 10:32:52;;;;;;;15.70;12.87;;;17.80;35.70;;;;;;5008170;28;20417;-73
2022/05/01 10:35:33;;;;;;;12.50;11.33;;;17.90;36.10;;;;;;5000240;28;20432;-74
2022/05/01 10:38:29;;;;;;;12.87;11.60;;;17.80;36.20;;;;;;5014668;28;20512;-74
2022/05/01 10:40:57;;;;;;;12.53;11.33;;;17.90;36.20;;;;;;4970143;28;20455;-74
2022/05/01 10:43:26;;;;;;;13.17;10.93;;;18.00;35.30;;;;;;5016546;28;20473;-74
2022/05/01 10:45:54;;;;;;;14.33;12.40;;;17.50;36.50;;;;;;5013526;28;20871;-74
2022/05/01 10:48:38;;;;;;;12.53;11.23;;;16.30;38.30;;;;;;5013079;28;20839;-73
2022/05/01 10:51:41;;;;;;;13.23;11.20;;;16.30;38.60;;;;;;5013072;28;20484;-73
2022/05/01 10:54:37;;;;;;;15.30;12.47;;;16.70;38.20;;;;;;5012601;28;20457;-73
2022/05/01 10:57:16;;;;;;;17.60;11.93;;;16.90;37.00;;;;;;5013261;28;20429;-73
2022/05/01 10:59:46;;;;;;;15.47;12.90;;;16.20;38.30;;;;;;5021678;28;20470;-74
2022/05/01 11:02:24;;;;;;;13.20;11.40;;;15.70;40.20;;;;;;5010943;28;20877;-74
2022/05/01 11:04:52;;;;;;;16.13;12.13;;;16.10;39.20;;;;;;5014162;28;20982;-73
2022/05/01 11:07:20;;;;;;;12.03;10.83;;;16.50;37.80;;;;;;5012676;28;20487;-73
2022/05/01 11:09:49;;;;;;;11.13;10.03;;;17.00;36.00;;;;;;5012957;28;20444;-74
2022/05/01 11:12:19;;;;;;;12.97;11.57;;;17.30;36.30;;;;;;5013593;28;20438;-73
2022/05/01 11:14:51;;;;;;;14.13;11.70;;;17.50;35.80;;;;;;5013077;28;20460;-73
2022/05/01 11:17:29;;;;;;;13.43;12.13;;;17.20;36.20;;;;;;5013410;28;20463;-73
2022/05/01 11:20:05;;;;;;;15.30;10.53;;;16.10;38.00;;;;;;5013312;28;20462;-74
2022/05/01 11:22:32;;;;;;;18.10;11.07;;;16.50;36.50;;;;;;5013216;28;20429;-73
2022/05/01 11:25:00;;;;;;;17.03;12.27;;;16.70;37.10;;;;;;5013960;28;20555;-74
2022/05/01 11:27:27;;;;;;;11.27;10.10;;;17.30;36.30;;;;;;5015551;28;20492;-73
2022/05/01 11:30:33;;;;;;;10.30;9.40;;;17.70;35.20;;;;;;5019118;28;20464;-74
2022/05/01 11:33:01;;;;;;;12.67;10.57;;;18.00;34.80;;;;;;5021349;28;20460;-74
2022/05/01 11:35:54;;;;;;;13.83;10.93;;;18.30;33.70;;;;;;5021840;28;20495;-75
2022/05/01 11:38:22;;;;;;;12.23;11.03;;;18.20;34.30;;;;;;5026935;28;20433;-75
2022/05/01 11:40:57;;;;;;;12.50;11.20;;;17.80;34.80;;;;;;5029820;28;20451;-73
2022/05/01 11:43:28;;;;;;;12.20;11.00;;;16.80;35.80;;;;;;5016606;28;20982;-75
2022/05/01 11:45:55;;;;;;;14.20;12.10;;;16.30;37.80;;;;;;5015116;28;20457;-74
2022/05/01 11:48:22;;;;;;;12.20;10.93;;;16.70;36.70;;;;;;5014399;28;20488;-73
2022/05/01 11:50:51;;;;;;;12.47;11.17;;;17.50;36.50;;;;;;5012274;28;20489;-76
2022/05/01 11:53:20;;;;;;;12.70;11.40;;;18.00;36.90;;;;;;5015682;28;20536;-73
2022/05/01 12:04:32;;;;;;;14.70;11.10;;;17.60;37.50;;;;;;5014079;28;20492;-73
2022/05/01 12:07:04;;;;;;;11.33;9.33;;;16.90;39.70;;;;;;5009558;28;20560;-75
2022/05/01 12:09:34;;;;;;;11.77;10.57;;;17.20;39.10;;;;;;5013535;28;20512;-74
2022/05/01 12:12:01;;;;;;;14.23;11.10;;;16.90;39.80;;;;;;5013535;28;20433;-75
2022/05/01 12:14:30;;;;;;;12.23;11.07;;;16.70;39.70;;;;;;5013624;28;20912;-74
2022/05/01 12:16:57;;;;;;;14.07;11.17;;;16.50;39.60;;;;;;5015840;28;20546;-74
2022/05/01 12:19:35;;;;;;;11.50;10.30;;;16.50;40.20;;;;;;5019697;28;20499;-74
2022/05/01 12:22:03;;;;;;;12.70;11.50;;;16.00;41.10;;;;;;5016525;28;20440;-74
2022/05/01 12:24:30;;;;;;;12.20;10.73;;;15.40;42.30;;;;;;5016496;28;20518;-74
2022/05/01 12:26:57;;;;;;;11.43;10.23;;;15.60;43.40;;;;;;5015122;28;20479;-74
2022/05/01 12:29:25;;;;;;;11.37;10.20;;;16.20;41.00;;;;;;5014952;28;20462;-75
2022/05/01 12:32:07;;;;;;;12.20;10.80;;;16.40;40.40;;;;;;5014407;28;20426;-73
2022/05/01 12:34:36;;;;;;;12.63;11.43;;;16.70;39.20;;;;;;5014714;28;20449;-74
2022/05/01 12:37:05;;;;;;;15.50;12.53;;;16.40;39.80;;;;;;5013981;28;20458;-73
2022/05/01 12:39:32;;;;;;;12.33;11.03;;;16.00;40.90;;;;;;5013841;28;20937;-74
2022/05/01 12:45:12;;;;;;;13.20;10.33;;;16.40;40.50;;;;;;5019340;28;20533;-76
2022/05/01 12:47:42;;;;;;;13.20;11.80;;;16.50;39.20;;;;;;5028217;28;20458;-73
2022/05/01 12:50:12;;;;;;;13.60;10.30;;;17.10;37.40;;;;;;5029269;28;20455;-75
2022/05/01 12:52:40;;;;;;;12.13;10.93;;;17.80;36.70;;;;;;5030758;28;20612;-75
2022/05/01 12:55:14;;;;;;;13.20;10.80;;;18.30;35.00;;;;;;5029298;28;20452;-75
2022/05/01 12:57:41;;;;;;;10.57;9.57;;;18.60;33.10;;;;;;5017440;28;20429;-74
2022/05/01 13:00:09;;;;;;;15.83;10.77;;;18.20;33.90;;;;;;5016069;28;20480;-75
2022/05/01 13:02:36;;;;;;;9.90;8.90;;;17.40;34.80;;;;;;5019323;28;20515;-74
2022/05/01 13:05:05;;;;;;;13.63;10.33;;;16.90;35.90;;;;;;5027800;28;20499;-74
2022/05/01 13:07:34;;;;;;;12.13;9.87;;;17.40;36.00;;;;;;5017787;28;20829;-75
2022/05/01 13:10:01;;;;;;;11.63;10.53;;;17.80;34.40;;;;;;5016632;28;20421;-75